createdAt,value
2022-09-21T00:01:19.067Z,63.60
2022-09-21T00:03:47.440Z,63.50
2022-09-21T00:06:17.926Z,63.00
2022-09-21T00:08:46.995Z,62.40
2022-09-21T00:11:16.655Z,62.60
2022-09-21T00:13:46.853Z,62.80
2022-09-21T00:16:17.471Z,62.30
2022-09-21T00:18:45.775Z,62.00
2022-09-21T00:21:16.570Z,62.40
2022-09-21T00:23:45.549Z,62.80
2022-09-21T00:26:16.082Z,63.30
2022-09-21T00:28:44.613Z,63.20
2022-09-21T00:31:14.397Z,62.40
2022-09-21T00:33:44.593Z,61.70
2022-09-21T00:36:14.687Z,61.50
2022-09-21T00:38:42.819Z,61.90
2022-09-21T00:41:12.155Z,62.60
2022-09-21T00:43:46.414Z,62.70
2022-09-21T00:46:17.836Z,63.20
2022-09-21T00:48:47.645Z,62.50
2022-09-21T00:51:16.725Z,62.30
2022-09-21T00:53:45.308Z,62.30
2022-09-21T00:56:15.522Z,62.60
2022-09-21T00:58:49.598Z,62.90
2022-09-21T01:01:18.738Z,63.10
2022-09-21T01:03:50.593Z,63.00
2022-09-21T01:06:21.491Z,62.80
2022-09-21T01:08:53.886Z,62.80
2022-09-21T01:11:30.714Z,62.70
2022-09-21T01:14:27.011Z,63.40
2022-09-21T01:17:03.736Z,62.40
2022-09-21T01:19:59.642Z,62.30
2022-09-21T01:22:38.151Z,62.40
2022-09-21T01:25:13.140Z,62.60
2022-09-21T01:27:55.134Z,62.50
2022-09-21T01:30:25.361Z,62.50
2022-09-21T01:32:57.967Z,62.40
2022-09-21T01:35:30.110Z,62.60
2022-09-21T01:38:01.347Z,63.20
2022-09-21T01:40:35.660Z,63.70
2022-09-21T01:43:08.148Z,64.00
2022-09-21T01:45:41.400Z,64.10
2022-09-21T01:48:11.235Z,64.40
2022-09-21T01:50:44.960Z,64.60
2022-09-21T01:53:19.724Z,64.20
2022-09-21T01:55:53.373Z,63.70
2022-09-21T01:58:29.439Z,63.80
2022-09-21T02:01:00.366Z,63.70
2022-09-21T02:03:33.724Z,63.80
2022-09-21T02:06:03.445Z,63.80
2022-09-21T02:08:32.644Z,63.20
2022-09-21T02:11:02.660Z,63.40
2022-09-21T02:13:35.279Z,62.90
2022-09-21T02:16:20.851Z,62.90
2022-09-21T02:19:00.711Z,63.00
2022-09-21T02:21:34.245Z,63.00
2022-09-21T02:24:15.041Z,63.80
2022-09-21T02:26:50.101Z,64.40
2022-09-21T02:29:26.775Z,64.30
2022-09-21T02:32:05.285Z,64.20
2022-09-21T02:34:42.174Z,64.70
2022-09-21T02:37:19.723Z,63.80
2022-09-21T02:39:57.216Z,63.80
2022-09-21T02:42:29.780Z,64.00
2022-09-21T02:45:05.136Z,64.00
2022-09-21T02:47:40.104Z,64.00
2022-09-21T02:50:13.855Z,64.30
2022-09-21T02:52:44.553Z,64.30
2022-09-21T02:55:16.107Z,63.60
2022-09-21T02:57:45.518Z,63.50
2022-09-21T03:00:15.674Z,64.10
2022-09-21T03:02:47.174Z,63.70
2022-09-21T03:05:16.407Z,63.60
2022-09-21T03:07:44.782Z,63.90
2022-09-21T03:10:12.991Z,63.70
2022-09-21T03:12:46.261Z,63.70
2022-09-21T03:15:14.593Z,65.60
2022-09-21T03:17:44.139Z,63.90
2022-09-21T03:20:12.495Z,63.70
2022-09-21T03:22:40.567Z,64.10
2022-09-21T03:25:13.165Z,63.80
2022-09-21T03:27:42.973Z,63.90
2022-09-21T03:30:12.306Z,63.60
2022-09-21T03:32:40.458Z,63.20
2022-09-21T03:35:10.751Z,63.90
2022-09-21T03:37:41.301Z,63.70
2022-09-21T03:40:11.605Z,63.20
2022-09-21T03:42:40.207Z,63.10
2022-09-21T03:45:09.883Z,64.00
2022-09-21T03:47:38.189Z,63.30
2022-09-21T03:50:09.953Z,63.20
2022-09-21T03:52:39.866Z,63.90
2022-09-21T03:55:10.045Z,63.50
2022-09-21T03:57:38.816Z,63.40
2022-09-21T04:00:10.008Z,63.50
2022-09-21T04:02:40.490Z,64.00
2022-09-21T04:05:10.507Z,64.80
2022-09-21T04:07:40.814Z,65.20
2022-09-21T04:10:13.043Z,65.10
2022-09-21T04:12:43.794Z,64.20
2022-09-21T04:15:14.679Z,65.10
2022-09-21T04:17:43.140Z,69.10
2022-09-21T04:20:11.615Z,69.20
2022-09-21T04:22:43.716Z,67.20
2022-09-21T04:25:12.818Z,66.00
2022-09-21T04:27:41.828Z,65.20
2022-09-21T04:30:12.479Z,64.20
2022-09-21T04:32:40.919Z,63.90
2022-09-21T04:35:10.548Z,64.30
2022-09-21T04:37:40.384Z,64.90
2022-09-21T04:40:09.640Z,65.20
2022-09-21T04:42:37.810Z,64.80
2022-09-21T04:45:06.746Z,65.00
2022-09-21T04:47:34.857Z,65.30
2022-09-21T04:50:03.060Z,65.30
2022-09-21T04:52:31.299Z,65.20
2022-09-21T04:55:00.994Z,65.70
2022-09-21T04:57:29.302Z,65.50
2022-09-21T04:59:57.454Z,67.10
2022-09-21T05:02:25.646Z,66.10
2022-09-21T05:04:53.803Z,65.40
2022-09-21T05:07:21.960Z,65.90
2022-09-21T05:10:05.372Z,65.30
2022-09-21T05:12:40.899Z,65.00
2022-09-21T05:15:10.407Z,65.10
2022-09-21T05:17:38.587Z,64.30
2022-09-21T05:20:07.739Z,63.90
2022-09-21T05:22:35.898Z,63.40
2022-09-21T05:25:04.110Z,64.60
2022-09-21T05:27:32.495Z,64.10
2022-09-21T05:30:02.779Z,64.10
2022-09-21T05:32:42.801Z,64.70
2022-09-21T05:35:19.082Z,65.30
2022-09-21T05:37:58.022Z,66.50
2022-09-21T05:40:27.057Z,67.00
2022-09-21T05:42:56.355Z,67.70
2022-09-21T05:45:28.801Z,68.10
2022-09-21T05:48:03.368Z,68.50
2022-09-21T05:50:57.339Z,71.70
2022-09-21T05:53:45.985Z,71.90
2022-09-21T05:56:25.421Z,69.80
2022-09-21T05:59:03.151Z,71.50
2022-09-21T06:01:45.744Z,72.10
2022-09-21T06:04:14.338Z,72.40
2022-09-21T06:06:42.464Z,72.10
2022-09-21T06:09:10.590Z,72.10
2022-09-21T06:11:38.788Z,72.70
2022-09-21T06:14:07.345Z,73.50
2022-09-21T06:16:41.961Z,70.80
2022-09-21T06:19:12.996Z,70.90
2022-09-21T06:21:41.271Z,72.20
2022-09-21T06:24:09.497Z,72.40
2022-09-21T06:26:37.748Z,74.10
2022-09-21T06:29:06.115Z,73.50
2022-09-21T06:31:34.850Z,74.70
2022-09-21T06:34:05.085Z,77.40
2022-09-21T06:36:34.572Z,80.70
2022-09-21T06:39:02.955Z,81.10
2022-09-21T06:41:32.149Z,79.00
2022-09-21T06:44:01.380Z,80.80
2022-09-21T06:46:29.886Z,79.20
2022-09-21T06:48:58.427Z,82.80
2022-09-21T06:51:28.380Z,82.40
2022-09-21T06:53:58.106Z,82.90
2022-09-21T06:56:27.465Z,80.20
2022-09-21T06:58:57.016Z,81.40
2022-09-21T07:01:25.639Z,81.00
2022-09-21T07:03:54.704Z,81.00
2022-09-21T07:06:23.866Z,82.10
2022-09-21T07:11:43.364Z,85.00
2022-09-21T07:14:11.987Z,85.10
2022-09-21T07:16:40.547Z,83.90
2022-09-21T07:19:12.033Z,84.90
2022-09-21T07:21:41.069Z,86.20
2022-09-21T07:24:15.259Z,86.40
2022-09-21T07:26:43.593Z,85.40
2022-09-21T07:29:11.853Z,86.90
2022-09-21T07:31:40.190Z,87.10
2022-09-21T07:34:08.517Z,86.80
2022-09-21T07:36:36.820Z,87.00
2022-09-21T07:39:05.226Z,87.00
2022-09-21T07:41:35.173Z,87.00
2022-09-21T07:44:03.751Z,87.10
2022-09-21T07:46:32.169Z,86.70
2022-09-21T07:49:00.927Z,86.50
2022-09-21T07:51:29.070Z,87.00
2022-09-21T07:53:58.027Z,85.30
2022-09-21T07:56:26.783Z,85.50
2022-09-21T07:59:07.107Z,85.10
2022-09-21T08:01:36.421Z,84.90
2022-09-21T08:04:06.409Z,84.20
2022-09-21T08:06:36.223Z,84.50
2022-09-21T08:09:05.759Z,84.10
2022-09-21T08:11:34.909Z,84.30
2022-09-21T08:14:05.507Z,83.60
2022-09-21T08:16:34.173Z,84.40
2022-09-21T08:19:03.173Z,81.90
2022-09-21T08:21:31.278Z,82.00
2022-09-21T08:23:59.521Z,82.10
2022-09-21T08:26:28.018Z,82.90
2022-09-21T08:28:58.585Z,82.80
2022-09-21T08:31:28.443Z,81.40
2022-09-21T08:33:58.188Z,79.20
2022-09-21T08:36:26.748Z,80.00
2022-09-21T08:38:56.906Z,79.10
2022-09-21T08:41:29.534Z,78.30
2022-09-21T08:44:04.382Z,77.90
2022-09-21T08:46:37.060Z,79.20
2022-09-21T08:49:10.203Z,77.80
2022-09-21T08:51:45.857Z,77.60
2022-09-21T08:54:20.636Z,77.50
2022-09-21T08:57:04.597Z,72.70
2022-09-21T08:59:34.324Z,71.40
2022-09-21T09:02:14.620Z,72.30
2022-09-21T09:04:52.750Z,71.30
2022-09-21T09:07:35.772Z,71.60
2022-09-21T09:10:13.637Z,70.40
2022-09-21T09:12:56.304Z,69.00
2022-09-21T09:15:57.294Z,67.80
2022-09-21T09:18:38.133Z,69.40
2022-09-21T09:21:25.393Z,68.20
2022-09-21T09:24:04.163Z,67.90
2022-09-21T09:26:40.109Z,67.80
2022-09-21T09:29:17.256Z,65.70
2022-09-21T09:31:46.727Z,64.70
2022-09-21T09:34:20.807Z,63.60
2022-09-21T09:36:59.730Z,64.80
2022-09-21T09:39:31.976Z,66.30
2022-09-21T09:42:33.414Z,60.80
2022-09-21T09:45:26.572Z,64.60
2022-09-21T09:48:15.914Z,60.10
2022-09-21T09:50:46.280Z,63.10
2022-09-21T09:53:18.780Z,61.20
2022-09-21T09:55:49.616Z,61.80
2022-09-21T09:58:20.834Z,59.10
2022-09-21T10:00:53.744Z,62.10
2022-09-21T10:03:24.043Z,58.90
2022-09-21T10:05:54.144Z,59.90
2022-09-21T10:08:43.646Z,57.90
2022-09-21T10:11:14.515Z,59.60
2022-09-21T10:13:44.331Z,56.70
2022-09-21T10:16:17.101Z,55.40
2022-09-21T10:18:50.738Z,55.70
2022-09-21T10:21:24.544Z,57.10
2022-09-21T10:23:55.415Z,53.60
2022-09-21T10:26:24.452Z,54.70
2022-09-21T10:29:00.762Z,55.90
2022-09-21T10:31:31.171Z,53.20
2022-09-21T10:34:15.593Z,52.80
2022-09-21T10:36:52.492Z,54.00
2022-09-21T10:39:23.583Z,53.40
2022-09-21T10:41:55.054Z,51.70
2022-09-21T10:44:27.327Z,51.10
2022-09-21T10:46:57.432Z,48.30
2022-09-21T10:49:28.943Z,48.20
2022-09-21T10:52:00.686Z,49.40
2022-09-21T10:54:32.848Z,51.50
2022-09-21T10:57:04.235Z,48.90
2022-09-21T10:59:34.056Z,45.80
2022-09-21T11:02:03.630Z,47.20
2022-09-21T11:04:39.869Z,48.50
2022-09-21T11:07:18.899Z,49.00
2022-09-21T11:09:55.409Z,48.40
2022-09-21T11:12:35.446Z,47.20
2022-09-21T11:15:13.205Z,47.30
2022-09-21T11:17:47.257Z,42.80
2022-09-21T11:20:23.953Z,43.10
2022-09-21T11:23:01.752Z,43.50
2022-09-21T11:25:37.037Z,44.00
2022-09-21T11:28:14.277Z,40.10
2022-09-21T11:30:55.638Z,43.40
2022-09-21T11:33:46.792Z,44.10
2022-09-21T11:36:23.286Z,41.40
2022-09-21T11:39:01.963Z,43.10
2022-09-21T11:41:51.763Z,41.60
2022-09-21T11:44:33.074Z,46.00
2022-09-21T11:47:12.277Z,43.50
2022-09-21T11:50:29.243Z,45.60
2022-09-21T11:53:08.435Z,46.20
2022-09-21T11:55:49.452Z,39.70
2022-09-21T11:58:26.315Z,39.90
2022-09-21T12:01:05.457Z,40.40
2022-09-21T12:03:51.691Z,44.60
2022-09-21T12:06:39.921Z,40.40
2022-09-21T12:09:31.136Z,37.40
2022-09-21T12:12:08.784Z,38.30
2022-09-21T12:14:46.079Z,37.70
2022-09-21T12:17:23.585Z,38.00
2022-09-21T12:20:04.208Z,39.70
2022-09-21T12:22:36.807Z,36.30
2022-09-21T12:25:13.508Z,37.20
2022-09-21T12:27:47.991Z,38.70
2022-09-21T12:30:18.267Z,40.60
2022-09-21T12:32:53.670Z,37.60
2022-09-21T12:35:29.309Z,39.80
2022-09-21T12:38:02.535Z,36.50
2022-09-21T12:40:38.896Z,36.30
2022-09-21T12:43:17.544Z,42.80
2022-09-21T12:45:52.409Z,34.10
2022-09-21T12:48:30.954Z,34.20
2022-09-21T12:51:05.840Z,33.80
2022-09-21T12:53:37.742Z,35.60
2022-09-21T12:56:11.443Z,35.60
2022-09-21T12:58:52.234Z,35.20
2022-09-21T13:01:28.512Z,30.20
2022-09-21T13:04:12.583Z,26.50
2022-09-21T13:07:08.882Z,30.90
2022-09-21T13:09:42.152Z,28.30
2022-09-21T13:12:15.298Z,28.60
2022-09-21T13:14:47.487Z,27.40
2022-09-21T13:17:23.787Z,30.10
2022-09-21T13:20:00.338Z,29.90
2022-09-21T13:22:33.381Z,27.40
2022-09-21T13:25:05.915Z,25.30
2022-09-21T13:28:04.322Z,31.40
2022-09-21T13:30:37.603Z,30.00
2022-09-21T13:33:29.626Z,32.00
2022-09-21T13:36:29.114Z,31.50
2022-09-21T13:39:17.060Z,30.30
2022-09-21T13:42:02.235Z,22.50
2022-09-21T13:44:41.797Z,27.40
2022-09-21T13:47:14.263Z,27.70
2022-09-21T13:49:56.042Z,27.80
2022-09-21T13:52:39.610Z,23.70
2022-09-21T13:55:23.017Z,25.40
2022-09-21T13:57:55.443Z,23.20
2022-09-21T14:00:34.601Z,24.00
2022-09-21T14:03:07.583Z,24.50
2022-09-21T14:05:41.306Z,25.50
2022-09-21T14:08:26.178Z,23.00
2022-09-21T14:11:01.221Z,22.40
2022-09-21T14:13:35.482Z,21.00
2022-09-21T14:16:45.580Z,19.80
2022-09-21T14:19:47.580Z,22.70
2022-09-21T14:22:46.368Z,23.20
2022-09-21T14:25:32.424Z,22.90
2022-09-21T14:28:13.134Z,25.20
2022-09-21T14:30:49.154Z,25.60
2022-09-21T14:33:35.454Z,21.50
2022-09-21T14:36:09.719Z,22.40
2022-09-21T14:38:53.659Z,22.90
2022-09-21T14:41:33.427Z,23.00
2022-09-21T14:44:02.047Z,21.70
2022-09-21T14:46:54.778Z,21.20
2022-09-21T14:49:36.476Z,20.80
2022-09-21T14:52:24.756Z,23.10
2022-09-21T14:55:10.700Z,21.90
2022-09-21T14:58:04.877Z,20.30
2022-09-21T15:00:42.917Z,22.20
2022-09-21T15:03:45.371Z,20.70
2022-09-21T15:06:41.087Z,19.60
2022-09-21T15:09:49.500Z,20.20
2022-09-21T15:12:21.962Z,23.20
2022-09-21T15:15:01.610Z,22.00
2022-09-21T15:17:31.343Z,22.60
2022-09-21T15:20:00.928Z,21.60
2022-09-21T15:22:31.962Z,20.70
2022-09-21T15:25:05.978Z,20.10
2022-09-21T15:27:37.935Z,23.60
2022-09-21T15:30:20.243Z,21.20
2022-09-21T15:33:01.863Z,20.90
2022-09-21T15:35:32.701Z,22.10
2022-09-21T15:38:48.480Z,22.80
2022-09-21T15:41:41.301Z,22.90
2022-09-21T15:44:17.656Z,23.10
2022-09-21T15:46:52.504Z,22.50
2022-09-21T15:49:22.151Z,23.10
2022-09-21T15:51:54.126Z,22.80
2022-09-21T15:54:32.113Z,21.80
2022-09-21T15:57:05.933Z,23.40
2022-09-21T15:59:37.874Z,22.50
2022-09-21T16:02:18.559Z,22.60
2022-09-21T16:04:51.064Z,22.60
2022-09-21T16:07:32.165Z,22.00
2022-09-21T16:10:01.483Z,19.70
2022-09-21T16:12:40.549Z,21.00
2022-09-21T16:15:28.306Z,21.70
2022-09-21T16:18:01.415Z,20.80
2022-09-21T16:20:45.720Z,21.50
2022-09-21T16:23:17.239Z,22.20
2022-09-21T16:25:46.066Z,21.00
2022-09-21T16:28:35.939Z,20.80
2022-09-21T16:31:29.872Z,21.30
2022-09-21T16:34:07.909Z,22.50
2022-09-21T16:36:43.395Z,21.70
2022-09-21T16:39:17.439Z,23.40
2022-09-21T16:41:55.620Z,23.60
2022-09-21T16:44:26.302Z,24.50
2022-09-21T16:46:59.313Z,25.90
2022-09-21T16:49:32.780Z,25.60
2022-09-21T16:52:01.738Z,25.80
2022-09-21T16:54:31.214Z,26.50
2022-09-21T16:57:01.200Z,26.40
2022-09-21T16:59:30.438Z,26.00
2022-09-21T17:02:04.391Z,27.10
2022-09-21T17:04:35.435Z,27.30
2022-09-21T17:07:05.354Z,27.60
2022-09-21T17:09:35.736Z,27.50
2022-09-21T17:12:06.253Z,28.70
2022-09-21T17:14:36.235Z,28.70
2022-09-21T17:17:08.798Z,29.30
2022-09-21T17:19:37.235Z,29.50
2022-09-21T17:22:06.963Z,29.50
2022-09-21T17:24:52.555Z,29.90
2022-09-21T17:27:22.882Z,30.20
2022-09-21T17:29:54.093Z,30.60
2022-09-21T17:32:25.518Z,31.40
2022-09-21T17:34:58.783Z,31.40
2022-09-21T17:37:27.262Z,31.90
2022-09-21T17:39:55.497Z,32.30
2022-09-21T17:42:25.815Z,32.20
2022-09-21T17:45:13.863Z,33.30
2022-09-21T17:47:44.217Z,33.20
2022-09-21T17:50:24.121Z,33.80
2022-09-21T17:53:11.100Z,34.30
2022-09-21T17:55:40.292Z,34.90
2022-09-21T17:58:30.522Z,34.60
2022-09-21T18:01:07.440Z,35.30
2022-09-21T18:03:41.334Z,35.50
2022-09-21T18:06:11.243Z,35.60
2022-09-21T18:08:40.998Z,36.80
2022-09-21T18:11:27.116Z,36.60
2022-09-21T18:14:05.638Z,37.20
2022-09-21T18:16:42.902Z,37.70
2022-09-21T18:19:40.986Z,38.00
2022-09-21T18:22:18.059Z,38.50
2022-09-21T18:24:47.476Z,38.90
2022-09-21T18:27:20.090Z,39.30
2022-09-21T18:29:48.867Z,40.00
2022-09-21T18:32:44.466Z,39.70
2022-09-21T18:35:34.918Z,39.40
2022-09-21T18:38:15.977Z,40.20
2022-09-21T18:40:59.563Z,41.30
2022-09-21T18:43:35.045Z,41.30
2022-09-21T18:46:07.215Z,41.40
2022-09-21T18:48:50.727Z,42.10
2022-09-21T18:51:25.362Z,42.00
2022-09-21T18:53:56.144Z,43.00
2022-09-21T18:56:25.859Z,42.90
2022-09-21T18:58:54.836Z,42.90
2022-09-21T19:01:37.936Z,43.20
2022-09-21T19:04:07.775Z,43.60
2022-09-21T19:06:46.782Z,43.80
2022-09-21T19:09:52.471Z,44.00
2022-09-21T19:12:29.422Z,44.50
2022-09-21T19:15:12.333Z,44.60
2022-09-21T19:17:54.226Z,44.30
2022-09-21T19:20:42.037Z,44.90
2022-09-21T19:23:22.007Z,43.90
2022-09-21T19:25:53.976Z,44.00
2022-09-21T19:28:48.820Z,44.40
2022-09-21T19:31:19.668Z,44.60
2022-09-21T19:33:51.380Z,44.20
2022-09-21T19:36:20.679Z,44.10
2022-09-21T19:38:49.471Z,44.20
2022-09-21T19:41:36.246Z,43.90
2022-09-21T19:44:29.749Z,45.10
2022-09-21T19:47:06.594Z,46.10
2022-09-21T19:49:46.269Z,46.50
2022-09-21T19:52:17.936Z,47.10
2022-09-21T19:55:04.854Z,47.30
2022-09-21T19:58:06.723Z,46.90
2022-09-21T20:00:35.541Z,46.30
2022-09-21T20:03:07.433Z,46.70
2022-09-21T20:05:47.785Z,47.80
2022-09-21T20:08:22.542Z,47.50
2022-09-21T20:11:01.897Z,47.70
2022-09-21T20:13:43.067Z,47.70
2022-09-21T20:16:32.617Z,48.80
2022-09-21T20:19:09.791Z,48.10
2022-09-21T20:21:42.558Z,48.50
2022-09-21T20:24:21.270Z,48.10
2022-09-21T20:26:51.875Z,48.90
2022-09-21T20:29:22.047Z,49.70
2022-09-21T20:31:52.971Z,49.20
2022-09-21T20:34:21.864Z,49.10
2022-09-21T20:36:51.755Z,49.30
2022-09-21T20:39:19.957Z,49.80
2022-09-21T20:41:48.001Z,49.20
2022-09-21T20:44:16.197Z,49.20
2022-09-21T20:46:44.443Z,49.30
2022-09-21T20:49:15.409Z,49.90
2022-09-21T20:51:43.533Z,50.40
2022-09-21T20:54:13.070Z,50.60
2022-09-21T20:56:41.443Z,50.10
2022-09-21T20:59:09.592Z,50.20
2022-09-21T21:01:37.705Z,49.80
2022-09-21T21:04:05.966Z,50.20
2022-09-21T21:06:35.150Z,50.40
2022-09-21T21:09:03.317Z,50.00
2022-09-21T21:11:32.877Z,49.60
2022-09-21T21:14:01.151Z,50.30
2022-09-21T21:16:29.403Z,50.50
2022-09-21T21:18:57.754Z,50.20
2022-09-21T21:21:26.112Z,49.80
2022-09-21T21:24:11.927Z,50.10
2022-09-21T21:27:01.157Z,50.20
2022-09-21T21:29:29.737Z,51.30
2022-09-21T21:31:59.082Z,51.30
2022-09-21T21:34:27.362Z,51.00
2022-09-21T21:36:56.176Z,50.90
2022-09-21T21:39:24.710Z,51.20
2022-09-21T21:41:54.276Z,51.30
2022-09-21T21:44:22.617Z,51.70
2022-09-21T21:46:51.509Z,51.90
2022-09-21T21:49:19.728Z,51.90
2022-09-21T21:51:49.319Z,52.50
2022-09-21T21:54:18.332Z,52.80
2022-09-21T21:56:46.508Z,52.60
2022-09-21T21:59:17.879Z,53.40
2022-09-21T22:01:46.785Z,54.10
2022-09-21T22:04:15.587Z,53.70
2022-09-21T22:06:43.917Z,53.30
2022-09-21T22:09:14.829Z,53.50
2022-09-21T22:11:43.338Z,53.00
2022-09-21T22:14:11.836Z,52.40
2022-09-21T22:16:41.725Z,52.60
2022-09-21T22:19:10.412Z,52.80
2022-09-21T22:21:42.224Z,53.10
2022-09-21T22:24:11.069Z,53.90
2022-09-21T22:26:42.178Z,53.30
2022-09-21T22:29:11.990Z,53.30
2022-09-21T22:31:43.566Z,53.30
2022-09-21T22:34:12.641Z,53.10
2022-09-21T22:36:43.462Z,53.40
2022-09-21T22:39:12.437Z,54.20
2022-09-21T22:41:42.561Z,52.80
2022-09-21T22:44:11.661Z,52.60
2022-09-21T22:46:41.767Z,53.30
2022-09-21T22:49:10.120Z,53.60
2022-09-21T22:51:39.104Z,54.30
2022-09-21T22:54:07.562Z,54.20
2022-09-21T22:56:35.804Z,54.30
2022-09-21T22:59:05.431Z,54.90
2022-09-21T23:01:35.721Z,55.00
2022-09-21T23:04:06.943Z,54.80
2022-09-21T23:06:37.396Z,54.90
2022-09-21T23:09:08.126Z,54.60
2022-09-21T23:11:38.741Z,54.90
2022-09-21T23:14:07.062Z,54.60
2022-09-21T23:16:35.560Z,54.70
2022-09-21T23:19:05.231Z,54.60
2022-09-21T23:21:33.458Z,55.00
2022-09-21T23:24:03.036Z,55.50
2022-09-21T23:26:33.990Z,56.20
2022-09-21T23:29:04.359Z,55.90
2022-09-21T23:31:33.625Z,55.80
2022-09-21T23:34:07.376Z,55.40
2022-09-21T23:36:36.908Z,55.70
2022-09-21T23:39:07.098Z,56.50
2022-09-21T23:41:37.730Z,56.60
2022-09-21T23:44:06.381Z,55.90
2022-09-21T23:46:35.932Z,56.20
2022-09-21T23:49:04.841Z,57.10
2022-09-21T23:51:35.117Z,56.00
2022-09-21T23:54:03.427Z,56.00
2022-09-21T23:56:31.806Z,56.00
2022-09-21T23:59:00.390Z,56.20
